Weather at Rancho De Aereo Airport

Public forecast

Using degrees Fahrenheit for public forecast. Weather courtesy of forecast.io.

Closest aviation weather report (METAR) to Rancho De Aereo Airport

Closest report is Vance Brand Airport, 8.8 nm (16.2 km) WSW. Retrieved 2020/10/27 15:35 UTC (0 seconds ago):

KLMO 271535Z AUTO 00000KT 10SM CLR M08/M10 A3020 RMK AO2 T10841104

Closest aviation forecast (TAF) to Rancho De Aereo Airport

Closest forecast is Rocky Mountain Metropolitan Airport, 19.4 nm (35.9 km) SSW. Retrieved 2020/10/27 12:33 UTC (3 hours ago):

TAF KBJC 271130Z 2712/2812 25005KT P6SM SKC FM271400 VRB04KT P6SM SKC FM272100 13007KT P6SM FEW090 SCT200 FM280100 VRB04KT P6SM FEW200 FM280500 25006KT P6SM FEW200